Time;durP1;ratioP1;P1;durP2;ratioP2;P2;SDS_P1;SDS_P2;PMS_P1;PMS_P2;Temp;Humidity;BMP_temperature;BMP_pressure;BME280_temperature;BME280_humidity;BME280_pressure;Samples;Min_cycle;Max_cycle;Signal;HPM_P1;HPM_P2
2022/03/12 00:00:54;;;;;;;18.60;7.15;;;0.30;62.90;;;;;;5033628;28;20033;-87
2022/03/12 00:03:21;;;;;;;16.85;6.97;;;0.40;63.10;;;;;;5017781;28;20091;-88
2022/03/12 00:05:54;;;;;;;18.45;6.78;;;0.40;63.10;;;;;;5014950;28;20026;-89
2022/03/12 00:08:40;;;;;;;16.05;6.97;;;0.30;62.80;;;;;;5015251;28;20029;-89
2022/03/12 00:11:10;;;;;;;17.13;6.85;;;0.30;62.80;;;;;;5003950;28;20045;-89
2022/03/12 00:13:36;;;;;;;15.13;6.70;;;0.30;62.70;;;;;;5003260;28;20051;-91
2022/03/12 00:16:02;;;;;;;18.00;7.00;;;0.30;62.80;;;;;;5023328;28;20018;-87
2022/03/12 00:18:30;;;;;;;20.25;7.15;;;0.20;63.10;;;;;;5023069;28;20037;-88
2022/03/12 00:20:58;;;;;;;15.32;6.45;;;0.20;62.70;;;;;;5023845;28;20010;-91
2022/03/12 00:23:25;;;;;;;17.02;6.88;;;0.30;62.70;;;;;;5017382;28;20048;-89
2022/03/12 00:25:52;;;;;;;16.23;7.63;;;0.30;62.50;;;;;;5015251;28;20082;-90
2022/03/12 00:28:19;;;;;;;14.57;6.28;;;0.30;62.70;;;;;;5021248;28;20045;-89
2022/03/12 00:30:50;;;;;;;15.98;6.50;;;0.30;62.70;;;;;;5022339;28;20022;-87
2022/03/12 00:33:21;;;;;;;17.08;6.55;;;0.20;62.50;;;;;;5019743;28;20018;-89
2022/03/12 00:35:49;;;;;;;17.80;6.22;;;0.20;62.80;;;;;;5023838;28;20109;-87
2022/03/12 00:38:16;;;;;;;21.95;7.05;;;0.20;62.90;;;;;;5007407;28;20018;-89
2022/03/12 00:40:43;;;;;;;13.23;6.03;;;0.10;62.90;;;;;;5023946;28;20014;-88
2022/03/12 00:43:12;;;;;;;13.73;6.88;;;0.10;62.90;;;;;;5015947;28;20094;-88
2022/03/12 00:45:41;;;;;;;18.60;6.75;;;0.10;63.00;;;;;;5031907;28;20028;-89
2022/03/12 00:48:07;;;;;;;17.48;6.10;;;0.10;62.90;;;;;;5003348;28;20225;-88
2022/03/12 00:50:34;;;;;;;13.07;6.47;;;0.10;63.10;;;;;;5039526;28;20014;-87
2022/03/12 00:53:01;;;;;;;13.50;6.75;;;0.10;63.00;;;;;;5023030;28;20010;-88
2022/03/12 00:55:27;;;;;;;15.63;6.75;;;0.00;62.80;;;;;;5040509;28;20014;-88
2022/03/12 00:57:54;;;;;;;14.20;6.43;;;0.00;63.10;;;;;;5036222;28;20030;-86
2022/03/12 01:00:23;;;;;;;17.48;7.80;;;0.00;65.00;;;;;;5022401;28;20052;-89
2022/03/12 01:02:50;;;;;;;15.77;7.60;;;0.00;67.30;;;;;;5006599;28;20037;-87
2022/03/12 01:05:23;;;;;;;17.73;7.22;;;-0.10;68.60;;;;;;5022062;28;20026;-87
2022/03/12 01:07:50;;;;;;;20.63;7.70;;;-0.20;69.00;;;;;;5004182;28;20030;-88
2022/03/12 01:10:16;;;;;;;20.67;7.72;;;-0.20;69.20;;;;;;5036950;28;20010;-89
2022/03/12 01:12:44;;;;;;;17.42;8.75;;;-0.30;69.30;;;;;;5038003;28;20046;-88
2022/03/12 01:15:13;;;;;;;19.25;7.80;;;-0.30;69.60;;;;;;5004537;28;20026;-87
2022/03/12 01:17:40;;;;;;;19.98;8.95;;;-0.40;70.00;;;;;;5021302;28;20057;-89
2022/03/12 01:20:08;;;;;;;18.77;8.27;;;-0.40;70.20;;;;;;5023086;28;20017;-88
2022/03/12 01:22:36;;;;;;;29.52;8.70;;;-0.50;70.30;;;;;;5023053;28;20121;-90
2022/03/12 01:25:04;;;;;;;20.85;9.00;;;-0.50;70.50;;;;;;5006078;28;20045;-87
2022/03/12 01:27:31;;;;;;;20.20;7.90;;;-0.60;70.70;;;;;;5019930;28;20022;-88
2022/03/12 01:29:56;;;;;;;23.90;8.15;;;-0.60;71.00;;;;;;5038316;28;20021;-90
2022/03/12 01:32:24;;;;;;;18.80;8.00;;;-0.60;71.20;;;;;;5037196;28;20033;-88
2022/03/12 01:34:51;;;;;;;19.17;7.97;;;-0.70;71.40;;;;;;4997026;28;20026;-88
2022/03/12 01:37:19;;;;;;;16.98;7.93;;;-0.70;71.60;;;;;;5037744;28;20084;-87
2022/03/12 01:39:49;;;;;;;15.73;7.97;;;-0.80;71.70;;;;;;5038112;28;20151;-86
2022/03/12 01:42:16;;;;;;;17.73;8.93;;;-0.80;71.90;;;;;;5020602;28;20148;-88
2022/03/12 01:44:44;;;;;;;18.90;8.32;;;-0.80;72.40;;;;;;5005664;28;20033;-88
2022/03/12 01:47:10;;;;;;;15.10;7.00;;;-0.90;72.80;;;;;;5021062;28;20045;-87
2022/03/12 01:49:37;;;;;;;23.63;7.90;;;-0.90;73.10;;;;;;5039070;28;20014;-88
2022/03/12 01:52:05;;;;;;;17.65;7.45;;;-0.90;73.30;;;;;;5005991;28;20103;-88
2022/03/12 01:54:33;;;;;;;17.85;7.60;;;-0.90;73.20;;;;;;5021678;28;20049;-87
2022/03/12 01:56:59;;;;;;;18.83;8.13;;;-0.90;73.10;;;;;;5019226;28;20028;-88
2022/03/12 01:59:25;;;;;;;16.13;8.23;;;-0.90;72.70;;;;;;5016877;28;20022;-89
2022/03/12 02:01:52;;;;;;;18.45;7.55;;;-1.00;72.80;;;;;;5020684;28;20046;-87
2022/03/12 02:04:25;;;;;;;20.52;7.63;;;-1.00;72.80;;;;;;5022101;28;20022;-87
2022/03/12 02:06:52;;;;;;;22.02;7.93;;;-1.00;72.80;;;;;;5020302;28;20057;-87
2022/03/12 02:09:20;;;;;;;17.60;7.43;;;-1.10;72.80;;;;;;5036294;28;20018;-89
2022/03/12 02:11:50;;;;;;;21.83;8.23;;;-1.10;73.20;;;;;;5016167;28;20014;-87
2022/03/12 02:14:21;;;;;;;20.58;7.85;;;-1.10;73.50;;;;;;5018019;28;20037;-87
2022/03/12 02:16:51;;;;;;;21.13;8.23;;;-1.20;73.80;;;;;;5019941;28;20014;-87
2022/03/12 02:19:18;;;;;;;19.10;8.40;;;-1.30;74.00;;;;;;5037222;28;20028;-84
2022/03/12 02:22:17;;;;;;;16.38;7.47;;;-1.30;74.40;;;;;;5038926;28;20014;-87
2022/03/12 02:24:44;;;;;;;24.30;7.97;;;-1.30;74.60;;;;;;5014599;28;20030;-87
2022/03/12 02:27:10;;;;;;;23.52;8.80;;;-1.40;74.90;;;;;;5038732;28;20014;-86
2022/03/12 02:29:37;;;;;;;19.45;8.07;;;-1.40;75.30;;;;;;5020567;28;20014;-88
2022/03/12 02:32:09;;;;;;;19.95;8.38;;;-1.50;75.60;;;;;;5021403;28;20022;-88
2022/03/12 02:34:38;;;;;;;23.95;8.73;;;-1.50;76.10;;;;;;5021729;28;20108;-87
2022/03/12 02:37:05;;;;;;;21.92;8.35;;;-1.50;76.50;;;;;;5021671;28;20023;-86
2022/03/12 02:39:31;;;;;;;27.20;9.63;;;-1.50;76.80;;;;;;5021719;28;20018;-87
2022/03/12 02:42:05;;;;;;;15.52;7.50;;;-1.50;77.60;;;;;;5039067;28;20010;-87
2022/03/12 02:44:31;;;;;;;23.85;9.15;;;-1.50;78.20;;;;;;5022145;28;20077;-86
2022/03/12 02:47:16;;;;;;;21.92;7.93;;;-1.50;78.40;;;;;;5021851;28;20014;-88
2022/03/12 02:49:56;;;;;;;18.92;8.45;;;-1.40;78.20;;;;;;5021580;28;20037;-85
2022/03/12 02:52:24;;;;;;;20.17;8.48;;;-1.40;77.60;;;;;;5021252;28;20085;-87
2022/03/12 02:54:51;;;;;;;19.10;8.63;;;-1.30;77.00;;;;;;5020327;28;20010;-87
2022/03/12 02:57:23;;;;;;;21.42;7.90;;;-1.30;76.20;;;;;;5037465;28;20034;-87
2022/03/12 02:59:52;;;;;;;22.88;9.32;;;-1.30;75.80;;;;;;5037759;28;20049;-88
2022/03/12 03:02:23;;;;;;;23.48;8.82;;;-1.30;74.70;;;;;;5020446;28;20037;-89
2022/03/12 03:04:49;;;;;;;21.85;8.55;;;-1.30;74.10;;;;;;5035186;28;20045;-87
2022/03/12 03:07:16;;;;;;;19.95;8.13;;;-1.30;73.30;;;;;;5020896;28;20049;-88
2022/03/12 03:09:42;;;;;;;24.30;9.32;;;-1.40;73.00;;;;;;5015447;28;20033;-88
2022/03/12 03:12:10;;;;;;;20.13;8.57;;;-1.40;72.60;;;;;;5032848;28;20099;-89
2022/03/12 03:14:50;;;;;;;20.50;8.82;;;-1.30;71.90;;;;;;5034077;28;20053;-88
2022/03/12 03:17:18;;;;;;;22.60;8.93;;;-1.30;71.80;;;;;;5018469;28;20026;-87
2022/03/12 03:19:45;;;;;;;22.15;9.90;;;-1.30;71.40;;;;;;5019355;28;20102;-88
2022/03/12 03:22:12;;;;;;;20.85;9.57;;;-1.30;70.90;;;;;;5033608;28;20069;-90
2022/03/12 03:24:38;;;;;;;27.20;9.55;;;-1.40;71.40;;;;;;5015452;28;20056;-87
2022/03/12 03:27:04;;;;;;;25.38;9.45;;;-1.40;71.40;;;;;;5018563;28;20057;-88
2022/03/12 03:29:32;;;;;;;30.73;10.73;;;-1.40;71.50;;;;;;5020718;28;20041;-88
2022/03/12 03:32:02;;;;;;;25.30;9.85;;;-1.40;71.50;;;;;;5019717;28;20014;-88
2022/03/12 03:34:30;;;;;;;25.98;9.95;;;-1.40;71.60;;;;;;5035507;28;20110;-88
2022/03/12 03:36:56;;;;;;;29.10;9.80;;;-1.40;71.20;;;;;;5012866;28;20029;-88
2022/03/12 03:39:23;;;;;;;21.48;8.82;;;-1.40;69.90;;;;;;5011203;28;20053;-87
2022/03/12 03:41:52;;;;;;;31.83;9.38;;;-1.40;69.00;;;;;;5027121;28;20029;-88
2022/03/12 03:44:26;;;;;;;24.42;8.75;;;-1.30;68.50;;;;;;5027616;28;20041;-88
2022/03/12 03:46:51;;;;;;;20.05;8.52;;;-1.30;68.20;;;;;;5014074;28;20064;-89
2022/03/12 03:49:17;;;;;;;24.13;9.20;;;-1.30;68.20;;;;;;5038349;28;20037;-87
2022/03/12 03:51:44;;;;;;;19.35;8.60;;;-1.30;68.20;;;;;;5039239;28;20022;-86
2022/03/12 03:54:12;;;;;;;24.98;8.35;;;-1.30;68.20;;;;;;5024012;28;20042;-87
2022/03/12 03:56:38;;;;;;;20.27;7.75;;;-1.30;68.20;;;;;;5024636;28;20046;-88
2022/03/12 03:59:05;;;;;;;20.30;7.93;;;-1.30;68.10;;;;;;5037162;28;20121;-87
2022/03/12 04:01:32;;;;;;;23.30;9.48;;;-1.30;67.80;;;;;;5023938;28;20042;-87
2022/03/12 04:03:58;;;;;;;19.02;7.70;;;-1.30;67.40;;;;;;5022913;28;20034;-87
2022/03/12 04:06:25;;;;;;;23.58;8.02;;;-1.30;66.80;;;;;;5034211;28;20010;-86
2022/03/12 04:08:52;;;;;;;19.35;8.43;;;-1.40;67.00;;;;;;5024139;28;20024;-86
2022/03/12 04:11:23;;;;;;;18.00;7.35;;;-1.40;66.70;;;;;;5022956;28;20054;-85
2022/03/12 04:13:51;;;;;;;18.70;8.02;;;-1.40;66.70;;;;;;5035755;28;20089;-87
2022/03/12 04:16:18;;;;;;;21.00;7.60;;;-1.40;66.80;;;;;;5036178;28;20018;-87
2022/03/12 04:18:46;;;;;;;16.20;7.40;;;-1.40;66.50;;;;;;5004474;28;20026;-86
2022/03/12 04:21:14;;;;;;;16.48;6.90;;;-1.40;66.40;;;;;;4999777;28;20053;-86
2022/03/12 04:23:41;;;;;;;24.23;7.57;;;-1.40;66.30;;;;;;5010867;28;20034;-87
2022/03/12 04:26:08;;;;;;;23.55;7.50;;;-1.40;66.20;;;;;;5018451;28;20025;-86
2022/03/12 04:28:34;;;;;;;16.50;6.65;;;-1.40;65.90;;;;;;5038587;28;20053;-87
2022/03/12 04:31:01;;;;;;;43.50;8.65;;;-1.40;65.80;;;;;;5008083;28;20057;-86
2022/03/12 04:33:29;;;;;;;18.67;7.38;;;-1.40;65.60;;;;;;5007712;28;20041;-88
2022/03/12 04:35:56;;;;;;;17.42;7.35;;;-1.40;65.10;;;;;;5038966;28;20034;-88
2022/03/12 04:38:22;;;;;;;15.30;6.50;;;-1.40;64.90;;;;;;5014143;28;20034;-88
2022/03/12 04:40:49;;;;;;;16.85;6.40;;;-1.40;64.70;;;;;;5012868;28;20038;-88
2022/03/12 04:43:18;;;;;;;18.08;6.85;;;-1.40;64.50;;;;;;5013348;28;20033;-88
2022/03/12 04:45:45;;;;;;;26.25;5.90;;;-1.40;64.40;;;;;;5015481;28;20033;-87
2022/03/12 04:48:18;;;;;;;17.98;6.90;;;-1.40;64.30;;;;;;5015333;28;20030;-88
2022/03/12 04:50:44;;;;;;;16.98;6.38;;;-1.40;64.10;;;;;;5014788;28;20034;-88
2022/03/12 04:53:10;;;;;;;11.88;5.75;;;-1.40;63.80;;;;;;5003984;28;20045;-86
2022/03/12 04:55:37;;;;;;;19.40;7.13;;;-1.40;63.70;;;;;;5026588;28;20022;-88
2022/03/12 04:58:07;;;;;;;19.83;6.53;;;-1.40;63.50;;;;;;5052192;23;20169;-81
2022/03/12 05:00:38;;;;;;;19.50;6.45;;;-1.40;63.60;;;;;;5022669;28;20046;-82
2022/03/12 05:03:09;;;;;;;19.75;6.75;;;-1.40;63.30;;;;;;5039279;28;20124;-82
2022/03/12 05:05:40;;;;;;;14.57;5.47;;;-1.40;63.30;;;;;;5039422;28;20034;-81
2022/03/12 05:08:10;;;;;;;14.38;6.82;;;-1.40;63.40;;;;;;5040129;28;20018;-82
2022/03/12 05:10:36;;;;;;;15.80;6.15;;;-1.40;63.40;;;;;;5039847;28;20030;-82
2022/03/12 05:13:02;;;;;;;15.32;6.07;;;-1.40;63.20;;;;;;5039451;28;20053;-81
2022/03/12 05:15:32;;;;;;;17.95;6.95;;;-1.40;63.10;;;;;;5039790;28;20022;-82
2022/03/12 05:17:58;;;;;;;14.45;6.07;;;-1.40;63.40;;;;;;5038493;28;20086;-82
2022/03/12 05:20:26;;;;;;;17.35;6.35;;;-1.40;63.50;;;;;;5039053;28;20034;-82
2022/03/12 05:22:53;;;;;;;17.60;6.90;;;-1.50;63.90;;;;;;5038261;28;20073;-83
2022/03/12 05:25:20;;;;;;;20.58;6.10;;;-1.40;64.00;;;;;;5039425;28;20026;-83
2022/03/12 05:27:47;;;;;;;18.13;5.72;;;-1.40;64.30;;;;;;5038355;28;20052;-83
2022/03/12 05:30:13;;;;;;;15.63;6.65;;;-1.40;64.50;;;;;;5038636;28;20018;-82
2022/03/12 05:32:40;;;;;;;14.52;6.05;;;-1.40;64.90;;;;;;5036355;28;20041;-81
2022/03/12 05:35:08;;;;;;;20.42;6.30;;;-1.40;65.10;;;;;;5036785;28;20048;-82
2022/03/12 05:37:36;;;;;;;13.50;6.55;;;-1.40;65.10;;;;;;5038214;28;20033;-82
2022/03/12 05:40:04;;;;;;;18.52;7.55;;;-1.40;65.20;;;;;;5037621;28;20026;-81
2022/03/12 05:42:30;;;;;;;18.15;6.13;;;-1.40;65.20;;;;;;5021817;28;20030;-83
2022/03/12 05:44:56;;;;;;;17.75;6.50;;;-1.40;65.10;;;;;;5021510;28;20037;-83
2022/03/12 05:47:23;;;;;;;17.48;6.88;;;-1.40;65.10;;;;;;5028599;28;20027;-82
2022/03/12 05:49:49;;;;;;;16.42;6.75;;;-1.40;64.80;;;;;;5022716;28;20018;-83
2022/03/12 05:52:17;;;;;;;12.80;6.18;;;-1.40;65.30;;;;;;5018149;28;20046;-81
2022/03/12 05:54:45;;;;;;;21.60;6.55;;;-1.30;65.40;;;;;;5017029;28;20037;-83
2022/03/12 05:57:11;;;;;;;20.48;6.57;;;-1.30;65.10;;;;;;5016128;28;20086;-81
2022/03/12 05:59:37;;;;;;;19.92;6.78;;;-1.20;65.00;;;;;;5015869;28;20042;-82
2022/03/12 06:02:03;;;;;;;14.30;5.70;;;-1.20;64.80;;;;;;5015936;28;20031;-83
2022/03/12 06:04:29;;;;;;;18.65;6.65;;;-1.20;65.00;;;;;;4999915;28;20038;-82
2022/03/12 06:06:55;;;;;;;21.75;6.90;;;-1.10;65.10;;;;;;5017412;28;20034;-81
2022/03/12 06:09:22;;;;;;;22.38;7.10;;;-1.10;64.80;;;;;;5017800;28;20018;-82
2022/03/12 06:11:53;;;;;;;20.60;7.30;;;-1.00;64.80;;;;;;5017937;28;20083;-84
2022/03/12 06:14:21;;;;;;;16.83;7.13;;;-1.00;64.80;;;;;;5016778;28;20054;-82
2022/03/12 06:16:48;;;;;;;22.63;6.40;;;-1.00;64.30;;;;;;5019242;28;20030;-83
2022/03/12 06:19:19;;;;;;;21.40;7.43;;;-1.00;64.70;;;;;;5016422;28;20110;-82
2022/03/12 06:21:46;;;;;;;19.75;7.13;;;-0.90;64.60;;;;;;5016365;28;20034;-83
2022/03/12 06:24:12;;;;;;;18.20;6.57;;;-0.80;64.90;;;;;;5015613;28;20045;-83
2022/03/12 06:26:39;;;;;;;21.02;6.93;;;-0.80;64.80;;;;;;5027653;28;20022;-82
2022/03/12 06:29:13;;;;;;;24.65;7.10;;;-0.80;64.60;;;;;;5019514;28;20049;-81
2022/03/12 06:31:41;;;;;;;15.70;7.32;;;-0.80;65.60;;;;;;5035126;28;20086;-82
2022/03/12 06:34:10;;;;;;;17.20;6.72;;;-0.80;65.30;;;;;;5025470;28;20049;-82
2022/03/12 06:36:49;;;;;;;18.50;7.43;;;-0.70;65.20;;;;;;5024800;28;20034;-83
2022/03/12 06:39:15;;;;;;;23.48;7.28;;;-0.80;65.30;;;;;;5024323;28;20022;-82
2022/03/12 06:41:45;;;;;;;18.08;6.93;;;-0.70;65.40;;;;;;5027573;28;20045;-80
2022/03/12 06:44:12;;;;;;;19.92;7.05;;;-0.70;65.20;;;;;;5026026;28;20029;-83
2022/03/12 06:46:41;;;;;;;17.63;7.50;;;-0.60;65.00;;;;;;5025273;28;20041;-83
2022/03/12 06:49:07;;;;;;;19.40;6.45;;;-0.50;64.90;;;;;;5025452;28;20033;-82
2022/03/12 06:51:33;;;;;;;23.48;6.70;;;-0.40;64.50;;;;;;5023989;28;20018;-83
2022/03/12 06:54:00;;;;;;;14.65;6.10;;;-0.40;63.50;;;;;;5024127;28;20077;-81
2022/03/12 06:56:26;;;;;;;15.80;6.78;;;-0.30;63.50;;;;;;5026739;28;20027;-81
2022/03/12 06:58:52;;;;;;;19.13;6.95;;;-0.30;63.30;;;;;;5036103;28;20050;-80
2022/03/12 07:01:18;;;;;;;16.45;6.43;;;-0.30;64.00;;;;;;5035276;28;20021;-83
2022/03/12 07:03:49;;;;;;;18.30;7.25;;;-0.20;63.70;;;;;;5036440;28;20025;-83
2022/03/12 07:06:15;;;;;;;19.33;7.45;;;-0.10;64.10;;;;;;5036975;28;20105;-82
2022/03/12 07:08:41;;;;;;;16.60;6.25;;;0.00;63.60;;;;;;5037506;28;20033;-85
2022/03/12 07:11:07;;;;;;;13.93;6.22;;;0.10;63.00;;;;;;5036887;28;20077;-84
2022/03/12 07:13:35;;;;;;;19.10;6.15;;;0.10;63.30;;;;;;5036715;28;20038;-85
2022/03/12 07:16:01;;;;;;;16.50;6.43;;;0.30;63.20;;;;;;5036937;28;20494;-85
2022/03/12 07:18:27;;;;;;;16.63;6.88;;;0.30;62.60;;;;;;5030038;28;20045;-84
2022/03/12 07:20:53;;;;;;;14.75;6.25;;;0.30;62.80;;;;;;5029583;28;20034;-85
2022/03/12 07:23:20;;;;;;;19.63;6.82;;;0.40;62.10;;;;;;5034320;28;20052;-83
2022/03/12 07:25:46;;;;;;;13.18;5.97;;;0.50;63.10;;;;;;5035848;28;20030;-84
2022/03/12 07:28:17;;;;;;;14.70;6.82;;;0.60;62.40;;;;;;5027623;28;20026;-86
2022/03/12 07:30:43;;;;;;;20.60;7.05;;;0.60;63.20;;;;;;5024391;28;20061;-84
2022/03/12 07:33:10;;;;;;;15.90;6.75;;;0.70;63.00;;;;;;5026408;28;20033;-84
2022/03/12 07:35:36;;;;;;;15.98;6.68;;;0.80;63.50;;;;;;5031091;28;20037;-84
2022/03/12 07:38:02;;;;;;;17.30;6.72;;;0.90;63.10;;;;;;5035006;28;20086;-85
2022/03/12 07:40:29;;;;;;;17.45;6.40;;;1.00;63.10;;;;;;5037487;28;20014;-83
2022/03/12 07:42:55;;;;;;;16.17;6.55;;;1.10;63.00;;;;;;5036980;28;20014;-83
2022/03/12 07:45:21;;;;;;;16.50;7.05;;;1.10;62.60;;;;;;5038562;28;20117;-83
2022/03/12 07:47:47;;;;;;;19.48;6.20;;;1.20;62.60;;;;;;5013549;28;20050;-82
2022/03/12 07:50:14;;;;;;;17.45;6.18;;;1.20;62.30;;;;;;5027880;28;20034;-82
2022/03/12 07:52:40;;;;;;;20.23;7.63;;;1.30;61.80;;;;;;5017685;28;20057;-80
2022/03/12 07:55:08;;;;;;;16.17;6.70;;;1.10;61.90;;;;;;5019929;28;20034;-83
2022/03/12 07:57:34;;;;;;;16.70;7.22;;;1.20;62.40;;;;;;5018946;28;20018;-82
2022/03/12 08:00:01;;;;;;;18.38;6.53;;;1.30;62.20;;;;;;5018200;28;20033;-82
2022/03/12 08:02:32;;;;;;;14.77;6.05;;;1.40;62.00;;;;;;5016748;28;20389;-81
2022/03/12 08:04:58;;;;;;;17.05;6.30;;;1.40;61.80;;;;;;5017517;28;20030;-82
2022/03/12 08:07:24;;;;;;;16.23;6.70;;;1.50;61.90;;;;;;5009420;28;20030;-84
2022/03/12 08:09:56;;;;;;;28.48;7.35;;;1.50;61.90;;;;;;5016132;28;20375;-82
2022/03/12 08:12:25;;;;;;;18.98;7.25;;;1.60;61.60;;;;;;5014526;28;20088;-85
2022/03/12 08:14:51;;;;;;;15.95;6.20;;;1.60;60.70;;;;;;5012415;28;20022;-84
2022/03/12 08:17:19;;;;;;;14.35;6.05;;;1.50;61.70;;;;;;5013010;28;20634;-85
2022/03/12 08:19:45;;;;;;;18.85;6.80;;;1.60;61.80;;;;;;5010642;28;20015;-83
2022/03/12 08:22:11;;;;;;;13.63;6.78;;;1.70;61.90;;;;;;5016522;28;20050;-84
2022/03/12 08:24:37;;;;;;;18.27;6.70;;;1.80;61.60;;;;;;5017752;28;20042;-84
2022/03/12 08:27:04;;;;;;;20.67;7.57;;;1.90;61.20;;;;;;5004835;28;20030;-85
2022/03/12 08:29:30;;;;;;;18.48;7.22;;;1.90;61.00;;;;;;4984433;28;20023;-84
2022/03/12 08:31:55;;;;;;;19.98;6.55;;;2.00;60.70;;;;;;5015054;28;20030;-83
2022/03/12 08:34:26;;;;;;;18.38;6.90;;;2.00;60.70;;;;;;5014510;28;20018;-83
2022/03/12 08:36:52;;;;;;;15.98;6.97;;;2.00;60.90;;;;;;5018277;28;20022;-86
2022/03/12 08:39:18;;;;;;;16.42;6.53;;;2.00;61.00;;;;;;5016883;28;20027;-86
2022/03/12 08:41:45;;;;;;;19.52;6.50;;;2.00;61.40;;;;;;5017707;28;20682;-85
2022/03/12 08:44:11;;;;;;;15.40;7.45;;;2.10;61.40;;;;;;5019224;28;20029;-85
2022/03/12 08:46:42;;;;;;;16.55;7.45;;;2.10;61.40;;;;;;5050474;28;20072;-85
2022/03/12 08:49:09;;;;;;;14.27;6.30;;;2.20;61.40;;;;;;5020719;28;20033;-86
2022/03/12 08:51:35;;;;;;;13.52;5.88;;;2.30;61.60;;;;;;5014161;28;20048;-85
2022/03/12 08:54:02;;;;;;;20.08;6.55;;;2.40;61.40;;;;;;5010904;28;20062;-86
2022/03/12 08:56:28;;;;;;;18.90;6.40;;;2.40;61.10;;;;;;5014552;28;20029;-86
2022/03/12 08:58:54;;;;;;;13.68;6.55;;;2.50;61.30;;;;;;5013763;28;20034;-86
2022/03/12 09:01:21;;;;;;;13.27;7.07;;;2.70;60.60;;;;;;5018301;28;20489;-86
2022/03/12 09:03:47;;;;;;;19.45;6.88;;;2.80;59.80;;;;;;5015595;28;20125;-84
2022/03/12 09:06:13;;;;;;;15.35;7.60;;;3.00;60.10;;;;;;5013103;28;20023;-87
2022/03/12 09:08:39;;;;;;;17.17;7.22;;;3.30;59.40;;;;;;5012318;28;20034;-85
2022/03/12 09:11:05;;;;;;;18.02;7.22;;;3.60;58.60;;;;;;4995821;28;20037;-85
2022/03/12 09:13:31;;;;;;;18.30;6.85;;;4.00;58.20;;;;;;5025714;28;20085;-85
2022/03/12 09:15:58;;;;;;;13.20;6.07;;;4.80;57.50;;;;;;5027795;28;20002;-85
2022/03/12 09:18:26;;;;;;;17.40;8.23;;;5.30;56.30;;;;;;5014874;28;20081;-85
2022/03/12 09:20:52;;;;;;;22.95;7.95;;;5.50;55.40;;;;;;5011701;28;20011;-86
2022/03/12 09:23:21;;;;;;;16.52;7.32;;;6.00;54.80;;;;;;5018975;28;20031;-86
2022/03/12 09:25:49;;;;;;;16.80;7.30;;;6.90;53.70;;;;;;5010603;28;20023;-86
2022/03/12 09:28:16;;;;;;;14.73;7.05;;;7.60;52.60;;;;;;5010740;28;20026;-86
2022/03/12 09:30:43;;;;;;;22.83;8.50;;;8.60;51.50;;;;;;5010674;28;20026;-86
2022/03/12 09:33:09;;;;;;;17.92;7.18;;;9.40;50.30;;;;;;5016410;28;20038;-85
2022/03/12 09:35:36;;;;;;;14.35;7.00;;;10.10;49.10;;;;;;5011485;28;20022;-85
2022/03/12 09:38:02;;;;;;;13.75;7.30;;;10.40;48.10;;;;;;5013612;28;20095;-86
2022/03/12 09:40:32;;;;;;;17.10;6.72;;;10.40;47.50;;;;;;5015376;28;20150;-85
2022/03/12 09:42:59;;;;;;;16.75;7.38;;;10.80;47.40;;;;;;5009765;28;20029;-85
2022/03/12 09:45:25;;;;;;;20.75;7.18;;;11.20;46.70;;;;;;5012760;28;20021;-85
2022/03/12 09:47:54;;;;;;;13.38;6.97;;;11.40;46.00;;;;;;5009186;28;20081;-85
2022/03/12 09:50:21;;;;;;;13.10;6.63;;;11.90;45.80;;;;;;5000831;28;20030;-85
2022/03/12 09:52:47;;;;;;;16.65;7.13;;;11.80;45.30;;;;;;5012738;28;20038;-86
2022/03/12 09:55:14;;;;;;;14.50;6.20;;;12.10;45.20;;;;;;5011295;28;20141;-85
2022/03/12 09:57:41;;;;;;;12.73;6.63;;;12.40;44.70;;;;;;5030875;28;20057;-85
2022/03/12 10:00:08;;;;;;;12.88;6.85;;;13.10;43.40;;;;;;5024734;28;20049;-85
2022/03/12 10:02:43;;;;;;;17.10;7.88;;;14.10;42.90;;;;;;5024491;28;20509;-85
2022/03/12 10:05:13;;;;;;;16.63;7.07;;;14.60;41.90;;;;;;5025004;28;20082;-85
2022/03/12 10:07:41;;;;;;;14.15;6.72;;;14.90;41.70;;;;;;5025523;28;20033;-85
2022/03/12 10:10:14;;;;;;;14.20;7.22;;;15.10;41.30;;;;;;5022438;28;20022;-84
2022/03/12 10:12:40;;;;;;;14.13;6.50;;;15.50;41.30;;;;;;5022742;28;20478;-84
2022/03/12 10:15:06;;;;;;;14.13;7.00;;;15.70;40.40;;;;;;5023449;28;20030;-88
2022/03/12 10:17:32;;;;;;;16.83;7.50;;;15.20;40.60;;;;;;5023293;28;20148;-86
2022/03/12 10:19:57;;;;;;;22.17;7.82;;;14.50;40.80;;;;;;5023477;28;20410;-87
2022/03/12 10:22:23;;;;;;;25.13;7.10;;;13.70;40.90;;;;;;5033382;28;20085;-86
2022/03/12 10:24:50;;;;;;;17.60;6.97;;;13.50;41.50;;;;;;5026869;28;20084;-88
2022/03/12 10:27:16;;;;;;;14.48;6.53;;;14.00;41.40;;;;;;5022763;28;20100;-84
2022/03/12 10:29:42;;;;;;;15.43;7.13;;;14.30;41.30;;;;;;5021909;28;20072;-87
2022/03/12 10:32:28;;;;;;;14.40;7.32;;;13.80;41.10;;;;;;5027845;28;20054;-86
2022/03/12 10:34:59;;;;;;;11.27;6.60;;;14.20;41.10;;;;;;5027097;28;20140;-87
2022/03/12 10:37:31;;;;;;;14.77;6.32;;;14.10;40.70;;;;;;5026391;28;20030;-88
2022/03/12 10:40:07;;;;;;;14.48;6.47;;;14.60;40.60;;;;;;5026295;28;20076;-89
2022/03/12 10:42:35;;;;;;;13.43;6.70;;;14.40;40.70;;;;;;5034478;28;20045;-86
2022/03/12 10:45:09;;;;;;;11.35;6.07;;;14.40;39.60;;;;;;5036442;28;20049;-87
2022/03/12 10:47:41;;;;;;;19.60;6.70;;;14.60;40.10;;;;;;5036698;28;20044;-86
2022/03/12 10:50:11;;;;;;;11.50;6.28;;;15.10;39.60;;;;;;5035720;28;20333;-87
2022/03/12 10:52:43;;;;;;;12.48;5.82;;;15.60;39.20;;;;;;5028623;28;20033;-87
2022/03/12 10:55:18;;;;;;;13.68;7.15;;;15.30;38.20;;;;;;5022111;28;20037;-87
2022/03/12 10:58:08;;;;;;;10.98;5.72;;;15.20;39.30;;;;;;5025367;28;20030;-87
2022/03/12 11:00:46;;;;;;;12.07;6.28;;;15.70;38.60;;;;;;5026686;28;20038;-87
2022/03/12 11:03:21;;;;;;;15.60;7.70;;;16.00;38.40;;;;;;5031211;28;20026;-86
2022/03/12 11:05:49;;;;;;;16.10;6.65;;;15.20;37.30;;;;;;5034059;28;20030;-87
2022/03/12 11:08:29;;;;;;;11.45;5.72;;;14.70;37.90;;;;;;5024690;28;20045;-86
2022/03/12 11:11:13;;;;;;;13.32;5.75;;;14.90;37.30;;;;;;5023623;28;20061;-85
2022/03/12 11:13:50;;;;;;;13.75;5.43;;;15.70;37.40;;;;;;5026723;28;20082;-85
2022/03/12 11:16:24;;;;;;;10.63;5.78;;;15.10;36.70;;;;;;5029769;28;20120;-87
2022/03/12 11:18:53;;;;;;;9.98;6.20;;;14.80;37.70;;;;;;5029595;28;20029;-85
2022/03/12 11:21:43;;;;;;;17.15;6.63;;;15.10;37.40;;;;;;5024122;28;20034;-85
2022/03/12 11:24:23;;;;;;;11.60;5.68;;;15.40;36.60;;;;;;5023091;28;20097;-85
2022/03/12 11:26:54;;;;;;;16.60;5.78;;;15.00;36.70;;;;;;5031840;28;20042;-85
2022/03/12 11:29:23;;;;;;;9.02;5.35;;;15.60;36.60;;;;;;5035837;28;20058;-84
2022/03/12 11:31:51;;;;;;;15.18;5.80;;;15.70;37.10;;;;;;5028086;28;20022;-86
2022/03/12 11:34:23;;;;;;;15.35;5.78;;;15.90;37.00;;;;;;5024290;28;20072;-87
2022/03/12 11:37:05;;;;;;;18.58;6.68;;;15.90;36.10;;;;;;5026221;28;20033;-86
2022/03/12 11:39:36;;;;;;;13.75;5.60;;;15.50;36.70;;;;;;5031333;28;20037;-86
2022/03/12 11:42:12;;;;;;;9.13;5.22;;;15.60;36.10;;;;;;5027207;28;20030;-86
2022/03/12 11:44:47;;;;;;;8.90;5.80;;;14.80;35.90;;;;;;5027214;28;20036;-86
2022/03/12 11:47:14;;;;;;;11.98;4.88;;;14.90;36.20;;;;;;5026483;28;20490;-86
2022/03/12 11:49:42;;;;;;;14.27;5.63;;;15.80;36.00;;;;;;5025351;28;20112;-86
2022/03/12 11:52:08;;;;;;;11.98;5.30;;;16.00;36.00;;;;;;5024914;28;20029;-85
2022/03/12 11:54:41;;;;;;;15.18;5.45;;;16.50;35.50;;;;;;5032683;28;20058;-85
2022/03/12 11:57:12;;;;;;;14.68;5.13;;;16.60;35.20;;;;;;5025682;28;20026;-86
2022/03/12 11:59:38;;;;;;;18.88;5.70;;;17.30;35.30;;;;;;5022980;28;20049;-86
2022/03/12 12:02:31;;;;;;;13.65;4.88;;;16.30;34.80;;;;;;5021943;28;20029;-86
2022/03/12 12:04:59;;;;;;;14.40;5.55;;;16.20;35.50;;;;;;5019000;28;20070;-85
2022/03/12 12:07:29;;;;;;;9.18;5.20;;;16.50;35.30;;;;;;5019739;28;20054;-86
2022/03/12 12:09:55;;;;;;;9.65;5.40;;;16.70;35.30;;;;;;5023768;28;20026;-85
2022/03/12 12:12:24;;;;;;;10.48;5.53;;;16.60;35.40;;;;;;5040678;28;20010;-85
2022/03/12 12:14:51;;;;;;;13.27;6.47;;;16.40;35.80;;;;;;5026488;28;20120;-87
2022/03/12 12:17:17;;;;;;;18.38;5.25;;;16.30;35.30;;;;;;5026537;28;20021;-87
2022/03/12 12:19:43;;;;;;;8.90;5.50;;;17.00;35.70;;;;;;5026378;28;20098;-88
2022/03/12 12:22:08;;;;;;;10.75;5.85;;;17.70;35.30;;;;;;5026108;28;20022;-86
2022/03/12 12:24:39;;;;;;;18.52;6.18;;;18.30;34.90;;;;;;5026524;28;20033;-88
2022/03/12 12:27:08;;;;;;;11.60;5.40;;;17.10;35.10;;;;;;5034892;28;20081;-85
2022/03/12 12:29:48;;;;;;;16.23;5.85;;;17.10;35.70;;;;;;5038506;28;20037;-85
2022/03/12 12:32:20;;;;;;;11.88;6.05;;;17.10;35.70;;;;;;5039513;28;20090;-86
2022/03/12 12:35:02;;;;;;;12.80;6.00;;;17.40;35.60;;;;;;5030518;28;20105;-86
2022/03/12 12:37:45;;;;;;;12.75;6.05;;;17.50;36.00;;;;;;5036030;28;20026;-85
2022/03/12 12:40:13;;;;;;;11.63;5.35;;;17.20;35.40;;;;;;5036491;28;20026;-86
2022/03/12 12:42:43;;;;;;;10.18;5.22;;;17.20;35.20;;;;;;5036448;28;20034;-86
2022/03/12 12:45:17;;;;;;;14.02;5.78;;;16.90;35.60;;;;;;5029508;28;20026;-89
2022/03/12 12:47:44;;;;;;;9.80;4.97;;;17.50;35.10;;;;;;5029444;28;20026;-87